Assinippi, Massachusetts
Current Conditions -  °F | °C
As of 2:52 AM on Tuesday 21 Oct 2014 (Local Time) from KPYM Reporting Station
Light Rain Light Rain  
Wind Chill: 48°   Ceiling: 3600
Heat Index: 48°   Visibility: 10mi
Dew Point: 47°   Wind: 0mph
Humidity: 96%   Direction: NA
Pressure: 30"   Gusts: NA
Location:  42.1315°N, 70.8467°W
Report Text: KPYM 210652Z AUTO 00000KT 10SM -RA SCT029 BKN036 OVC048 09/08 A3000 RMK AO2 RAB20 SLP160 P0003 T00890083
Loading
Personal Weather Stations






























Interactive Weather Map New forecast layout! Learn more

10-Day Weather Forecast

Advertisements
Track Severe Weather on mobile